Time;durP1;ratioP1;P1;durP2;ratioP2;P2;SDS_P1;SDS_P2;PMS_P1;PMS_P2;Temp;Humidity;BMP_temperature;BMP_pressure;BME280_temperature;BME280_humidity;BME280_pressure;Samples;Min_cycle;Max_cycle;Signal;HPM_P1;HPM_P2
2022/11/28 00:01:34;;;;;;;;;20.50;14.50;;;;;;;;116780;1193;25497;-65
2022/11/28 00:04:04;;;;;;;;;14.50;12.50;;;;;;;;116743;1208;25453;-64
2022/11/28 00:06:45;;;;;;;;;17.50;15.00;;;;;;;;116800;1205;25831;-65
2022/11/28 00:09:15;;;;;;;;;19.00;17.00;;;;;;;;116792;1200;25170;-65
2022/11/28 00:11:44;;;;;;;;;20.00;15.00;;;;;;;;116806;1208;24864;-65
2022/11/28 00:14:13;;;;;;;;;21.00;18.50;;;;;;;;116743;1200;24670;-64
2022/11/28 00:16:41;;;;;;;;;17.00;11.67;;;;;;;;116772;1206;25507;-65
2022/11/28 00:19:10;;;;;;;;;17.50;14.00;;;;;;;;116753;1203;24992;-65
2022/11/28 00:21:40;;;;;;;;;18.50;15.50;;;;;;;;116802;1200;25535;-65
2022/11/28 00:24:08;;;;;;;;;12.00;12.00;;;;;;;;116785;1198;25459;-65
2022/11/28 00:26:39;;;;;;;;;14.33;14.00;;;;;;;;117050;1201;25266;-65
2022/11/28 00:29:08;;;;;;;;;19.00;16.00;;;;;;;;116766;1202;25601;-65
2022/11/28 00:31:41;;;;;;;;;17.00;12.00;;;;;;;;116613;1199;25037;-65
2022/11/28 00:34:11;;;;;;;;;17.00;16.00;;;;;;;;116804;1200;25084;-65
2022/11/28 00:36:42;;;;;;;;;16.33;13.00;;;;;;;;116791;1196;24757;-64
2022/11/28 00:39:10;;;;;;;;;16.50;14.50;;;;;;;;116802;1197;25202;-64
2022/11/28 00:41:38;;;;;;;;;23.00;18.50;;;;;;;;116795;1199;25225;-65
2022/11/28 00:44:07;;;;;;;;;20.00;16.00;;;;;;;;116795;1200;24821;-64
2022/11/28 00:46:35;;;;;;;;;18.50;14.50;;;;;;;;116625;1196;25650;-64
2022/11/28 00:49:03;;;;;;;;;13.50;12.50;;;;;;;;116833;1205;25097;-63
2022/11/28 00:51:32;;;;;;;;;16.00;15.00;;;;;;;;116782;1200;25689;-64
2022/11/28 00:54:02;;;;;;;;;20.50;15.50;;;;;;;;116773;1197;24702;-64
2022/11/28 00:56:33;;;;;;;;;18.50;15.00;;;;;;;;116800;1203;24828;-64
2022/11/28 00:59:02;;;;;;;;;18.00;16.00;;;;;;;;116769;1196;25237;-65
2022/11/28 01:01:36;;;;;;;;;25.00;16.00;;;;;;;;116798;1199;25786;-64
2022/11/28 01:04:07;;;;;;;;;21.50;13.50;;;;;;;;116842;1206;25517;-64
2022/11/28 01:06:46;;;;;;;;;18.00;15.33;;;;;;;;116778;1196;24867;-64
2022/11/28 01:09:18;;;;;;;;;23.00;15.00;;;;;;;;116786;1200;25107;-64
2022/11/28 01:11:50;;;;;;;;;18.00;14.50;;;;;;;;116774;1197;25032;-65
2022/11/28 01:14:21;;;;;;;;;20.00;15.00;;;;;;;;116810;1196;25391;-65
2022/11/28 01:16:49;;;;;;;;;15.50;12.50;;;;;;;;116798;1198;24760;-64
2022/11/28 01:19:17;;;;;;;;;16.00;15.00;;;;;;;;116811;1206;25514;-65
2022/11/28 01:21:46;;;;;;;;;19.00;14.50;;;;;;;;116773;1206;26438;-64
2022/11/28 01:24:14;;;;;;;;;20.00;15.00;;;;;;;;116807;1200;25093;-64
2022/11/28 01:26:42;;;;;;;;;20.50;16.00;;;;;;;;116804;1193;26164;-65
2022/11/28 01:29:10;;;;;;;;;19.00;16.00;;;;;;;;116803;1195;24921;-65
2022/11/28 01:31:39;;;;;;;;;18.33;13.67;;;;;;;;116762;1207;25520;-64
2022/11/28 01:34:07;;;;;;;;;18.25;13.00;;;;;;;;116782;1203;25277;-64
2022/11/28 01:36:35;;;;;;;;;14.50;14.00;;;;;;;;116764;1200;24723;-64
2022/11/28 01:39:03;;;;;;;;;18.50;14.50;;;;;;;;116775;1208;25045;-65
2022/11/28 01:41:31;;;;;;;;;18.00;16.00;;;;;;;;116765;1204;25634;-64
2022/11/28 01:44:12;;;;;;;;;18.50;16.00;;;;;;;;116734;1198;24711;-64
2022/11/28 01:46:40;;;;;;;;;21.00;16.00;;;;;;;;116757;1197;24831;-62
2022/11/28 01:49:29;;;;;;;;;16.00;12.00;;;;;;;;116770;1199;25498;-61
2022/11/28 01:52:00;;;;;;;;;20.00;14.00;;;;;;;;116748;1201;25063;-62
2022/11/28 01:54:30;;;;;;;;;16.67;12.67;;;;;;;;116748;1208;25449;-61
2022/11/28 01:57:04;;;;;;;;;16.50;13.00;;;;;;;;116838;1189;24891;-62
2022/11/28 01:59:35;;;;;;;;;17.00;17.00;;;;;;;;116800;1208;25248;-64
2022/11/28 02:02:07;;;;;;;;;19.00;15.50;;;;;;;;116790;1208;24984;-64
2022/11/28 02:04:35;;;;;;;;;19.00;14.50;;;;;;;;116784;1200;25199;-64
2022/11/28 02:07:03;;;;;;;;;15.00;15.00;;;;;;;;116776;1200;24887;-64
2022/11/28 02:09:31;;;;;;;;;13.00;9.00;;;;;;;;116774;1195;24727;-64
2022/11/28 02:12:33;;;;;;;;;17.25;15.00;;;;;;;;116796;1193;24871;-62
2022/11/28 02:15:07;;;;;;;;;22.00;15.50;;;;;;;;116765;1207;25620;-61
2022/11/28 02:18:13;;;;;;;;;19.00;16.00;;;;;;;;116763;1198;25086;-64
2022/11/28 02:21:09;;;;;;;;;19.00;14.00;;;;;;;;116734;1199;25556;-64
2022/11/28 02:23:54;;;;;;;;;17.50;16.50;;;;;;;;116769;1203;25356;-64
2022/11/28 02:26:44;;;;;;;;;17.50;15.00;;;;;;;;116758;1206;25185;-64
2022/11/28 02:29:38;;;;;;;;;16.67;15.33;;;;;;;;116721;1193;25048;-64
2022/11/28 02:32:19;;;;;;;;;14.00;13.00;;;;;;;;116697;1199;25497;-64
2022/11/28 02:34:54;;;;;;;;;16.00;13.50;;;;;;;;116801;1208;25348;-65
2022/11/28 02:37:33;;;;;;;;;18.33;14.33;;;;;;;;116737;1199;25466;-65
2022/11/28 02:40:24;;;;;;;;;12.50;11.00;;;;;;;;116802;1195;25042;-64
2022/11/28 02:43:31;;;;;;;;;15.33;14.00;;;;;;;;116812;1202;24910;-64
2022/11/28 02:46:18;;;;;;;;;14.00;12.33;;;;;;;;116752;1208;24889;-64
2022/11/28 02:49:13;;;;;;;;;18.50;15.00;;;;;;;;116767;1203;24794;-65
2022/11/28 02:51:46;;;;;;;;;16.33;15.00;;;;;;;;116780;1207;25572;-65
2022/11/28 02:54:16;;;;;;;;;16.50;14.00;;;;;;;;116771;1206;25233;-64
2022/11/28 02:56:50;;;;;;;;;21.00;14.00;;;;;;;;116759;1207;24988;-64
2022/11/28 02:59:30;;;;;;;;;14.00;13.33;;;;;;;;116801;1200;24866;-64
2022/11/28 03:01:59;;;;;;;;;15.00;13.00;;;;;;;;116736;1203;24800;-64
2022/11/28 03:04:41;;;;;;;;;11.00;10.00;;;;;;;;116756;1196;25007;-65
2022/11/28 03:07:17;;;;;;;;;18.00;14.00;;;;;;;;116766;1206;25072;-64
2022/11/28 03:10:02;;;;;;;;;14.00;12.00;;;;;;;;116789;1200;24984;-64
2022/11/28 03:12:36;;;;;;;;;18.50;13.50;;;;;;;;116732;1193;24973;-65
2022/11/28 03:15:06;;;;;;;;;20.00;14.00;;;;;;;;116704;1197;24674;-64
2022/11/28 03:17:41;;;;;;;;;19.00;15.00;;;;;;;;116761;1208;25053;-64
2022/11/28 03:20:30;;;;;;;;;22.00;15.00;;;;;;;;116727;1203;25102;-64
2022/11/28 03:23:04;;;;;;;;;19.00;14.00;;;;;;;;116743;1203;25284;-65
2022/11/28 03:25:56;;;;;;;;;17.00;12.00;;;;;;;;116721;1199;25379;-64
2022/11/28 03:28:30;;;;;;;;;17.50;14.50;;;;;;;;116785;1203;25310;-62
2022/11/28 03:31:10;;;;;;;;;21.00;15.50;;;;;;;;116717;1208;24914;-63
2022/11/28 03:33:43;;;;;;;;;17.00;12.50;;;;;;;;116702;1200;25041;-63
2022/11/28 03:36:19;;;;;;;;;10.00;10.00;;;;;;;;116809;1193;25718;-63
2022/11/28 03:38:52;;;;;;;;;16.67;13.00;;;;;;;;116785;1193;24665;-64
2022/11/28 03:41:32;;;;;;;;;12.33;12.00;;;;;;;;116784;1203;25525;-64
2022/11/28 03:44:01;;;;;;;;;16.00;12.50;;;;;;;;116726;1200;24841;-65
2022/11/28 03:46:34;;;;;;;;;11.67;7.33;;;;;;;;116712;1198;24653;-63
2022/11/28 03:49:03;;;;;;;;;11.00;7.00;;;;;;;;116780;1203;24857;-63
2022/11/28 03:51:40;;;;;;;;;14.00;13.00;;;;;;;;116807;1201;25037;-64
2022/11/28 03:54:15;;;;;;;;;18.50;15.00;;;;;;;;116740;1198;25505;-63
2022/11/28 03:57:14;;;;;;;;;16.67;13.67;;;;;;;;116777;1199;25551;-63
2022/11/28 03:59:47;;;;;;;;;16.67;12.67;;;;;;;;116803;1195;24792;-63
2022/11/28 04:02:57;;;;;;;;;14.00;12.00;;;;;;;;116805;1200;25558;-63
2022/11/28 04:05:43;;;;;;;;;13.33;10.33;;;;;;;;116677;1196;25052;-63
2022/11/28 04:08:42;;;;;;;;;14.33;12.00;;;;;;;;116786;1205;25420;-64
2022/11/28 04:11:24;;;;;;;;;16.00;13.00;;;;;;;;116722;1206;25465;-63
2022/11/28 04:14:00;;;;;;;;;16.25;14.00;;;;;;;;116796;1196;25221;-62
2022/11/28 04:17:06;;;;;;;;;19.00;15.50;;;;;;;;116752;1199;25070;-62
2022/11/28 04:19:42;;;;;;;;;15.25;15.25;;;;;;;;116730;1208;24676;-63
2022/11/28 04:22:28;;;;;;;;;15.00;11.50;;;;;;;;116803;1204;25248;-62
2022/11/28 04:25:00;;;;;;;;;20.25;12.25;;;;;;;;116732;1200;25389;-62
2022/11/28 04:27:41;;;;;;;;;13.00;11.50;;;;;;;;116822;1200;25448;-63
2022/11/28 04:30:11;;;;;;;;;18.00;15.00;;;;;;;;116751;1203;25332;-62
2022/11/28 04:32:45;;;;;;;;;13.50;12.00;;;;;;;;116769;1198;24814;-62
2022/11/28 04:35:23;;;;;;;;;18.00;14.00;;;;;;;;116808;1197;25058;-63
2022/11/28 04:37:52;;;;;;;;;16.00;15.00;;;;;;;;116771;1196;24877;-63
2022/11/28 04:40:22;;;;;;;;;19.00;12.00;;;;;;;;116757;1208;25482;-62
2022/11/28 04:42:57;;;;;;;;;18.50;14.00;;;;;;;;116766;1196;25517;-63
2022/11/28 04:45:31;;;;;;;;;13.50;12.00;;;;;;;;116799;1205;24709;-63
2022/11/28 04:48:00;;;;;;;;;21.00;17.00;;;;;;;;116682;1197;25380;-63
2022/11/28 04:50:37;;;;;;;;;16.00;14.00;;;;;;;;116779;1194;25432;-62
2022/11/28 04:53:12;;;;;;;;;16.00;14.00;;;;;;;;116784;1197;25061;-63
2022/11/28 04:56:06;;;;;;;;;16.50;12.00;;;;;;;;116758;1208;24717;-62
2022/11/28 04:58:38;;;;;;;;;14.00;14.00;;;;;;;;116701;1195;25361;-62
2022/11/28 05:01:09;;;;;;;;;16.00;14.00;;;;;;;;116729;1197;25053;-62
2022/11/28 05:03:38;;;;;;;;;18.33;14.33;;;;;;;;116770;1198;24939;-63
2022/11/28 05:06:09;;;;;;;;;15.00;14.00;;;;;;;;116770;1196;25687;-62
2022/11/28 05:08:37;;;;;;;;;14.00;13.00;;;;;;;;116777;1200;24992;-62
2022/11/28 05:11:06;;;;;;;;;15.00;14.00;;;;;;;;116799;1195;25099;-63
2022/11/28 05:13:34;;;;;;;;;15.00;14.00;;;;;;;;116709;1196;25362;-63
2022/11/28 05:16:03;;;;;;;;;15.50;13.00;;;;;;;;116712;1199;25445;-62
2022/11/28 05:18:31;;;;;;;;;16.67;13.67;;;;;;;;116730;1193;25142;-63
2022/11/28 05:21:00;;;;;;;;;15.00;14.00;;;;;;;;116720;1195;25506;-62
2022/11/28 05:23:28;;;;;;;;;19.00;14.00;;;;;;;;116792;1206;26255;-62
2022/11/28 05:25:56;;;;;;;;;15.67;12.00;;;;;;;;116737;1196;25285;-62
2022/11/28 05:28:24;;;;;;;;;11.50;11.50;;;;;;;;116741;1190;25028;-63
2022/11/28 05:30:59;;;;;;;;;15.00;15.00;;;;;;;;116770;1197;25766;-62
2022/11/28 05:33:29;;;;;;;;;16.00;15.00;;;;;;;;116776;1197;24846;-63
2022/11/28 05:36:08;;;;;;;;;16.00;14.00;;;;;;;;116793;1193;25462;-62
2022/11/28 05:38:40;;;;;;;;;17.00;13.00;;;;;;;;116765;1203;25535;-63
2022/11/28 05:41:16;;;;;;;;;16.50;15.00;;;;;;;;116797;1208;25493;-63
2022/11/28 05:43:45;;;;;;;;;18.00;15.00;;;;;;;;116799;1200;25615;-62
2022/11/28 05:46:13;;;;;;;;;19.00;14.00;;;;;;;;116773;1203;25427;-62
2022/11/28 05:48:41;;;;;;;;;20.00;13.00;;;;;;;;116779;1198;25482;-62
2022/11/28 05:51:10;;;;;;;;;16.00;16.00;;;;;;;;116785;1195;25311;-62
2022/11/28 05:53:38;;;;;;;;;17.00;11.00;;;;;;;;116750;1200;25347;-62
2022/11/28 05:56:08;;;;;;;;;15.00;13.00;;;;;;;;116766;1208;25272;-62
2022/11/28 05:58:37;;;;;;;;;16.00;12.00;;;;;;;;116780;1200;24870;-62
2022/11/28 06:01:20;;;;;;;;;12.00;9.50;;;;;;;;116762;1193;25095;-62
2022/11/28 06:03:49;;;;;;;;;20.00;13.00;;;;;;;;116747;1203;24921;-62
2022/11/28 06:06:20;;;;;;;;;19.00;16.00;;;;;;;;116784;1196;25096;-63
2022/11/28 06:08:51;;;;;;;;;15.00;12.00;;;;;;;;116767;1196;25497;-62
2022/11/28 06:11:20;;;;;;;;;15.00;14.00;;;;;;;;116766;1200;25358;-62
2022/11/28 06:13:49;;;;;;;;;16.00;12.00;;;;;;;;116767;1194;24813;-63
2022/11/28 06:16:20;;;;;;;;;15.67;13.00;;;;;;;;116810;1201;25283;-62
2022/11/28 06:18:53;;;;;;;;;16.50;14.00;;;;;;;;116742;1203;24850;-63
2022/11/28 06:21:22;;;;;;;;;15.00;11.00;;;;;;;;116775;1208;25565;-63
2022/11/28 06:23:51;;;;;;;;;20.50;13.50;;;;;;;;116755;1199;25692;-63
2022/11/28 06:26:21;;;;;;;;;13.00;13.00;;;;;;;;116800;1200;25096;-63
2022/11/28 06:28:49;;;;;;;;;16.00;13.00;;;;;;;;116733;1200;25333;-63
2022/11/28 06:31:20;;;;;;;;;18.00;12.50;;;;;;;;116780;1203;24779;-63
2022/11/28 06:33:48;;;;;;;;;16.00;14.00;;;;;;;;116738;1199;25349;-63
2022/11/28 06:36:18;;;;;;;;;19.00;14.00;;;;;;;;116801;1206;25676;-63
2022/11/28 06:38:47;;;;;;;;;13.00;13.00;;;;;;;;116761;1197;25561;-62
2022/11/28 06:41:17;;;;;;;;;18.00;12.00;;;;;;;;116819;1200;24770;-62
2022/11/28 06:43:46;;;;;;;;;13.33;12.33;;;;;;;;116780;1200;24698;-62
2022/11/28 06:46:19;;;;;;;;;13.00;11.50;;;;;;;;116848;1190;24706;-63
2022/11/28 06:48:49;;;;;;;;;12.00;11.00;;;;;;;;116826;1197;25410;-63
2022/11/28 06:51:19;;;;;;;;;12.50;12.00;;;;;;;;116771;1200;25424;-61
2022/11/28 06:53:47;;;;;;;;;13.50;10.50;;;;;;;;116784;1203;25434;-60
2022/11/28 06:56:18;;;;;;;;;11.00;9.00;;;;;;;;116788;1200;25178;-61
2022/11/28 06:58:47;;;;;;;;;14.00;12.00;;;;;;;;116835;1200;24702;-59
2022/11/28 07:01:17;;;;;;;;;13.00;12.50;;;;;;;;116837;1196;25307;-59
2022/11/28 07:03:47;;;;;;;;;22.75;18.25;;;;;;;;116781;1200;25926;-62
2022/11/28 07:06:17;;;;;;;;;25.00;13.50;;;;;;;;116786;1195;25184;-64
2022/11/28 07:08:46;;;;;;;;;34.00;25.00;;;;;;;;116806;1196;25546;-65
2022/11/28 07:11:15;;;;;;;;;;;;;;;;;;116780;1198;25185;-65
2022/11/28 07:13:47;;;;;;;;;34.00;28.00;;;;;;;;116797;1206;24861;-66
2022/11/28 07:16:23;;;;;;;;;35.00;26.00;;;;;;;;116770;1206;24829;-62
2022/11/28 07:18:52;;;;;;;;;42.33;25.33;;;;;;;;116806;1196;25078;-72
2022/11/28 07:21:20;;;;;;;;;34.00;23.00;;;;;;;;116767;1203;25303;-65
2022/11/28 07:23:49;;;;;;;;;37.00;27.00;;;;;;;;116829;1196;25544;-65
2022/11/28 07:26:18;;;;;;;;;39.00;25.00;;;;;;;;116771;1202;25460;-64
2022/11/28 07:28:47;;;;;;;;;34.50;25.50;;;;;;;;116799;1199;25461;-64
2022/11/28 07:31:16;;;;;;;;;27.50;23.50;;;;;;;;116805;1200;25729;-65
2022/11/28 07:33:46;;;;;;;;;25.00;19.00;;;;;;;;116795;1193;24806;-65
2022/11/28 07:36:20;;;;;;;;;29.33;21.33;;;;;;;;116764;1197;25631;-64
2022/11/28 07:38:50;;;;;;;;;34.00;22.50;;;;;;;;116749;1199;24986;-65
2022/11/28 07:41:19;;;;;;;;;31.50;20.00;;;;;;;;116761;1208;24814;-65
2022/11/28 07:43:55;;;;;;;;;29.00;21.00;;;;;;;;116776;1200;24759;-65
2022/11/28 07:46:24;;;;;;;;;22.00;19.00;;;;;;;;116769;1199;25537;-65
2022/11/28 07:48:53;;;;;;;;;29.67;19.33;;;;;;;;116781;1193;25406;-65
2022/11/28 07:51:24;;;;;;;;;27.00;21.67;;;;;;;;116777;1205;24945;-65
2022/11/28 07:53:52;;;;;;;;;28.00;25.00;;;;;;;;116767;1199;25259;-65
2022/11/28 07:56:23;;;;;;;;;21.00;17.00;;;;;;;;116810;1196;25678;-65
2022/11/28 07:58:52;;;;;;;;;31.33;19.67;;;;;;;;117083;1197;25485;-64
2022/11/28 08:01:25;;;;;;;;;29.00;18.00;;;;;;;;116801;1200;24775;-64
2022/11/28 08:03:55;;;;;;;;;32.00;22.00;;;;;;;;116809;1203;25112;-64
2022/11/28 08:06:26;;;;;;;;;32.00;21.50;;;;;;;;116798;1193;24946;-65
2022/11/28 08:08:55;;;;;;;;;29.00;19.00;;;;;;;;116782;1189;25098;-64
2022/11/28 08:11:24;;;;;;;;;31.00;21.00;;;;;;;;116786;1197;24740;-64
2022/11/28 08:13:52;;;;;;;;;24.00;21.00;;;;;;;;116798;1189;25116;-64
2022/11/28 08:16:26;;;;;;;;;21.00;18.00;;;;;;;;116793;1189;25018;-64
2022/11/28 08:18:55;;;;;;;;;34.50;22.00;;;;;;;;116764;1202;26013;-64
2022/11/28 08:21:26;;;;;;;;;27.50;20.00;;;;;;;;116855;1194;24717;-63
2022/11/28 08:23:58;;;;;;;;;27.00;19.00;;;;;;;;116720;1191;24751;-64
2022/11/28 08:26:27;;;;;;;;;28.00;21.00;;;;;;;;116745;1199;24966;-64
2022/11/28 08:28:59;;;;;;;;;33.00;24.50;;;;;;;;116750;1196;25256;-65
2022/11/28 08:31:33;;;;;;;;;21.67;19.33;;;;;;;;116793;1199;24728;-64
2022/11/28 08:34:05;;;;;;;;;26.00;18.00;;;;;;;;117041;1187;24789;-64
2022/11/28 08:36:33;;;;;;;;;22.00;17.00;;;;;;;;116742;1192;25475;-65
2022/11/28 08:39:03;;;;;;;;;26.50;17.00;;;;;;;;116807;1199;25654;-64
2022/11/28 08:41:55;;;;;;;;;21.33;18.33;;;;;;;;116782;1207;25291;-65
2022/11/28 08:44:25;;;;;;;;;29.50;21.00;;;;;;;;116793;1203;25087;-65
2022/11/28 08:46:54;;;;;;;;;32.00;22.50;;;;;;;;116800;1200;24998;-65
2022/11/28 08:49:22;;;;;;;;;25.00;20.00;;;;;;;;116748;1199;25022;-64
2022/11/28 08:51:50;;;;;;;;;31.00;19.00;;;;;;;;116753;1200;24870;-64
2022/11/28 08:54:19;;;;;;;;;21.00;16.00;;;;;;;;116756;1199;25357;-64
2022/11/28 08:56:47;;;;;;;;;19.00;16.00;;;;;;;;116768;1193;25630;-64
2022/11/28 08:59:16;;;;;;;;;22.00;19.00;;;;;;;;116757;1208;25535;-64
2022/11/28 09:01:44;;;;;;;;;23.50;18.00;;;;;;;;116735;1196;25035;-64
2022/11/28 09:04:12;;;;;;;;;25.00;21.00;;;;;;;;116779;1203;24680;-63
2022/11/28 09:06:40;;;;;;;;;23.00;20.50;;;;;;;;116788;1202;25041;-64
2022/11/28 09:09:09;;;;;;;;;26.00;19.33;;;;;;;;116746;1191;25229;-64
2022/11/28 09:11:37;;;;;;;;;24.67;16.00;;;;;;;;117072;1202;25019;-64
2022/11/28 09:14:05;;;;;;;;;21.67;17.00;;;;;;;;116792;1203;25270;-64
2022/11/28 09:16:34;;;;;;;;;16.00;12.00;;;;;;;;116748;1208;25760;-64
2022/11/28 09:19:02;;;;;;;;;23.00;17.00;;;;;;;;116789;1208;25521;-65
2022/11/28 09:21:30;;;;;;;;;19.00;13.00;;;;;;;;116807;1205;25530;-64
2022/11/28 09:23:59;;;;;;;;;18.00;13.00;;;;;;;;116729;1199;24754;-65
2022/11/28 09:26:28;;;;;;;;;23.00;16.33;;;;;;;;116754;1208;25384;-65
2022/11/28 09:28:56;;;;;;;;;22.00;17.50;;;;;;;;116751;1195;25022;-64
2022/11/28 09:31:25;;;;;;;;;26.50;19.00;;;;;;;;116747;1206;25295;-65
2022/11/28 09:33:53;;;;;;;;;26.00;17.00;;;;;;;;116753;1199;25776;-64
2022/11/28 09:36:23;;;;;;;;;22.00;19.50;;;;;;;;116811;1203;25189;-64
2022/11/28 09:38:51;;;;;;;;;20.67;17.33;;;;;;;;116772;1200;24831;-64
2022/11/28 09:41:36;;;;;;;;;19.00;14.00;;;;;;;;116778;1200;26013;-64
2022/11/28 09:44:27;;;;;;;;;18.50;13.50;;;;;;;;116823;1189;25058;-64
2022/11/28 09:46:58;;;;;;;;;22.00;16.33;;;;;;;;117030;1201;24710;-64
2022/11/28 09:49:45;;;;;;;;;23.00;17.00;;;;;;;;116810;1203;25589;-64
2022/11/28 09:52:17;;;;;;;;;19.50;15.00;;;;;;;;116833;1206;25382;-64
2022/11/28 09:54:56;;;;;;;;;11.00;8.00;;;;;;;;116795;1208;25653;-64
2022/11/28 09:57:35;;;;;;;;;20.00;16.00;;;;;;;;116790;1196;24802;-64
2022/11/28 10:00:10;;;;;;;;;22.50;17.00;;;;;;;;116752;1196;25181;-63
2022/11/28 10:02:49;;;;;;;;;18.00;15.00;;;;;;;;116814;1208;24806;-64
2022/11/28 10:05:35;;;;;;;;;18.50;15.00;;;;;;;;116778;1200;24696;-64
2022/11/28 10:08:25;;;;;;;;;16.00;16.00;;;;;;;;117089;1201;25668;-64
2022/11/28 10:11:02;;;;;;;;;16.00;14.00;;;;;;;;116726;1203;25234;-64
2022/11/28 10:13:49;;;;;;;;;10.00;10.00;;;;;;;;116766;1196;24687;-64
2022/11/28 10:17:02;;;;;;;;;18.33;15.67;;;;;;;;116787;1208;24836;-65
2022/11/28 10:19:38;;;;;;;;;24.00;19.00;;;;;;;;116793;1200;25087;-64
2022/11/28 10:22:38;;;;;;;;;24.50;14.00;;;;;;;;116756;1195;24957;-64
2022/11/28 10:25:17;;;;;;;;;22.00;15.00;;;;;;;;116774;1196;25644;-64
2022/11/28 10:27:47;;;;;;;;;21.00;17.00;;;;;;;;116790;1200;24678;-64
2022/11/28 10:30:22;;;;;;;;;16.00;12.00;;;;;;;;116817;1200;24914;-64
2022/11/28 10:33:04;;;;;;;;;22.00;14.00;;;;;;;;116813;1195;25202;-65
2022/11/28 10:35:43;;;;;;;;;20.00;16.00;;;;;;;;116785;1199;24828;-64
2022/11/28 10:38:12;;;;;;;;;16.00;13.50;;;;;;;;116772;1196;24808;-64
2022/11/28 10:40:51;;;;;;;;;15.50;13.00;;;;;;;;116799;1204;25135;-64
2022/11/28 10:43:45;;;;;;;;;17.00;14.00;;;;;;;;116784;1205;25388;-64
2022/11/28 10:46:28;;;;;;;;;20.00;16.00;;;;;;;;116770;1200;25267;-63
2022/11/28 10:49:18;;;;;;;;;17.00;16.50;;;;;;;;116778;1196;25384;-64
2022/11/28 10:52:05;;;;;;;;;17.50;13.00;;;;;;;;116777;1196;24773;-64
2022/11/28 10:54:45;;;;;;;;;17.50;13.50;;;;;;;;116822;1196;24850;-63
2022/11/28 10:57:28;;;;;;;;;17.00;15.00;;;;;;;;117054;1191;24791;-63
2022/11/28 11:00:11;;;;;;;;;16.50;12.00;;;;;;;;116778;1200;24686;-63
2022/11/28 11:02:46;;;;;;;;;20.00;16.67;;;;;;;;116739;1196;24760;-64
2022/11/28 11:05:28;;;;;;;;;17.00;15.00;;;;;;;;116799;1196;25034;-66
2022/11/28 11:08:12;;;;;;;;;17.00;12.75;;;;;;;;117034;1204;26465;-65
2022/11/28 11:10:44;;;;;;;;;19.00;14.00;;;;;;;;116795;1205;25525;-64
2022/11/28 11:13:18;;;;;;;;;23.00;15.50;;;;;;;;117040;1194;24996;-64
2022/11/28 11:15:50;;;;;;;;;20.00;13.00;;;;;;;;116784;1206;25392;-65
2022/11/28 11:18:31;;;;;;;;;20.00;18.00;;;;;;;;116811;1202;25114;-61
2022/11/28 11:21:07;;;;;;;;;15.00;10.00;;;;;;;;116804;1199;24693;-64
2022/11/28 11:23:36;;;;;;;;;23.33;17.00;;;;;;;;116809;1201;24933;-63
2022/11/28 11:26:09;;;;;;;;;19.00;16.00;;;;;;;;116777;1197;25639;-64
2022/11/28 11:28:46;;;;;;;;;19.00;18.00;;;;;;;;116775;1208;25604;-64
2022/11/28 11:31:52;;;;;;;;;19.00;14.00;;;;;;;;116781;1206;25752;-65
2022/11/28 11:34:22;;;;;;;;;17.00;14.00;;;;;;;;116780;1203;24820;-65
2022/11/28 11:37:17;;;;;;;;;20.00;15.00;;;;;;;;116767;1199;24803;-65
2022/11/28 11:39:51;;;;;;;;;17.00;13.00;;;;;;;;116765;1200;24871;-66
2022/11/28 11:42:27;;;;;;;;;16.00;13.00;;;;;;;;116781;1200;25019;-64
2022/11/28 11:45:31;;;;;;;;;14.00;14.00;;;;;;;;116793;1200;25281;-73
2022/11/28 11:48:00;;;;;;;;;15.00;13.00;;;;;;;;116679;1203;25398;-71
2022/11/28 11:50:30;;;;;;;;;16.00;14.00;;;;;;;;116739;1192;25654;-70
2022/11/28 11:53:05;;;;;;;;;15.00;12.67;;;;;;;;116684;1206;25363;-64
2022/11/28 11:55:43;;;;;;;;;20.00;15.50;;;;;;;;116758;1203;25101;-63
2022/11/28 11:58:14;;;;;;;;;15.00;13.00;;;;;;;;116822;1207;25645;-64
2022/11/28 12:00:42;;;;;;;;;11.00;8.50;;;;;;;;116801;1206;25623;-70
2022/11/28 12:03:28;;;;;;;;;18.00;14.00;;;;;;;;116797;1196;24979;-65
2022/11/28 12:06:04;;;;;;;;;16.00;13.33;;;;;;;;116693;1199;25752;-71
2022/11/28 12:09:06;;;;;;;;;10.00;8.50;;;;;;;;116747;1198;25309;-74
2022/11/28 12:11:39;;;;;;;;;15.00;11.00;;;;;;;;116749;1200;25680;-67
2022/11/28 12:14:25;;;;;;;;;21.00;14.00;;;;;;;;116727;1199;24926;-70
2022/11/28 12:17:19;;;;;;;;;14.00;9.00;;;;;;;;116714;1203;25025;-71
2022/11/28 12:20:32;;;;;;;;;16.00;13.00;;;;;;;;116766;1196;25485;-69
2022/11/28 12:23:18;;;;;;;;;12.50;9.00;;;;;;;;116767;1200;25624;-74
2022/11/28 12:26:28;;;;;;;;;15.00;12.00;;;;;;;;116762;1193;25084;-69
2022/11/28 12:29:09;;;;;;;;;11.50;10.00;;;;;;;;116780;1200;25584;-67
2022/11/28 12:31:47;;;;;;;;;11.00;10.00;;;;;;;;116776;1200;24779;-69
2022/11/28 12:34:24;;;;;;;;;12.00;11.00;;;;;;;;116707;1200;24945;-69
2022/11/28 12:37:04;;;;;;;;;13.50;11.50;;;;;;;;116710;1199;25353;-71
2022/11/28 12:40:09;;;;;;;;;18.00;12.00;;;;;;;;116725;1198;25499;-67
2022/11/28 12:42:52;;;;;;;;;11.67;11.33;;;;;;;;116744;1204;25031;-69
2022/11/28 12:45:33;;;;;;;;;13.25;10.75;;;;;;;;116707;1203;25559;-74
2022/11/28 12:48:20;;;;;;;;;10.67;10.33;;;;;;;;116731;1203;25602;-71
2022/11/28 12:51:17;;;;;;;;;17.50;13.00;;;;;;;;116661;1200;25656;-70
2022/11/28 12:54:00;;;;;;;;;17.00;11.00;;;;;;;;116664;1208;24777;-71
2022/11/28 12:56:43;;;;;;;;;11.33;9.00;;;;;;;;116652;1200;25460;-70
2022/11/28 12:59:27;;;;;;;;;13.33;10.67;;;;;;;;116774;1196;25376;-66
2022/11/28 13:02:17;;;;;;;;;17.00;12.00;;;;;;;;116728;1200;25696;-68
2022/11/28 13:05:24;;;;;;;;;16.50;15.00;;;;;;;;116731;1197;25391;-68
2022/11/28 13:08:11;;;;;;;;;15.00;12.00;;;;;;;;116637;1202;25582;-72
2022/11/28 13:10:58;;;;;;;;;8.00;5.00;;;;;;;;116735;1203;25019;-67
2022/11/28 13:13:36;;;;;;;;;17.00;8.50;;;;;;;;116728;1189;24757;-72
2022/11/28 13:16:16;;;;;;;;;13.00;10.50;;;;;;;;116719;1200;24686;-70
2022/11/28 13:19:19;;;;;;;;;14.00;11.00;;;;;;;;116758;1197;25006;-70
2022/11/28 13:22:05;;;;;;;;;12.50;11.00;;;;;;;;116749;1196;25202;-72
2022/11/28 13:24:48;;;;;;;;;9.50;8.50;;;;;;;;116629;1195;24911;-78
2022/11/28 13:27:37;;;;;;;;;14.33;9.33;;;;;;;;116668;1195;25062;-74
2022/11/28 13:30:25;;;;;;;;;13.00;9.00;;;;;;;;116682;1203;25267;-76
2022/11/28 13:32:57;;;;;;;;;12.00;12.00;;;;;;;;116800;1206;25709;-67
2022/11/28 13:35:26;;;;;;;;;10.50;8.50;;;;;;;;116742;1203;25640;-72
2022/11/28 13:38:03;;;;;;;;;10.50;9.00;;;;;;;;117053;1201;25683;-70
2022/11/28 13:41:02;;;;;;;;;10.00;8.00;;;;;;;;116795;1202;24918;-65
2022/11/28 13:43:39;;;;;;;;;12.33;10.33;;;;;;;;116768;1196;25849;-70
2022/11/28 13:46:08;;;;;;;;;17.00;10.00;;;;;;;;116778;1203;25296;-69
2022/11/28 13:48:36;;;;;;;;;16.50;12.50;;;;;;;;116705;1193;25152;-78
2022/11/28 13:51:27;;;;;;;;;13.33;10.67;;;;;;;;116716;1206;25463;-71
2022/11/28 13:54:38;;;;;;;;;10.50;10.50;;;;;;;;116707;1200;25120;-71
2022/11/28 13:57:15;;;;;;;;;11.67;7.67;;;;;;;;116705;1207;25165;-72
2022/11/28 13:59:52;;;;;;;;;14.00;10.50;;;;;;;;116683;1200;24910;-69
2022/11/28 14:02:38;;;;;;;;;14.00;7.50;;;;;;;;116725;1196;25373;-71
2022/11/28 14:05:35;;;;;;;;;11.33;9.67;;;;;;;;116689;1193;25027;-69
2022/11/28 14:08:05;;;;;;;;;10.50;10.00;;;;;;;;116666;1200;25309;-70
2022/11/28 14:10:59;;;;;;;;;12.00;8.33;;;;;;;;116609;1202;24996;-77
2022/11/28 14:13:36;;;;;;;;;10.00;8.50;;;;;;;;116616;1197;25349;-72
2022/11/28 14:16:24;;;;;;;;;8.00;8.00;;;;;;;;116622;1193;25041;-74
2022/11/28 14:19:10;;;;;;;;;8.25;6.75;;;;;;;;116696;1204;25203;-73
2022/11/28 14:21:47;;;;;;;;;9.00;9.00;;;;;;;;116721;1200;25476;-75
2022/11/28 14:24:52;;;;;;;;;14.75;8.00;;;;;;;;116665;1200;24699;-78
2022/11/28 14:27:24;;;;;;;;;12.00;9.00;;;;;;;;116730;1193;24814;-72
2022/11/28 14:29:54;;;;;;;;;9.00;7.00;;;;;;;;116746;1203;25453;-73
2022/11/28 14:32:32;;;;;;;;;7.25;7.00;;;;;;;;116807;1198;25004;-71
2022/11/28 14:35:01;;;;;;;;;9.50;8.50;;;;;;;;116734;1196;25226;-69
2022/11/28 14:37:33;;;;;;;;;8.50;7.00;;;;;;;;116704;1200;25062;-73
2022/11/28 14:40:02;;;;;;;;;8.33;6.00;;;;;;;;116688;1203;25282;-69
2022/11/28 14:42:35;;;;;;;;;9.00;6.00;;;;;;;;116703;1199;25182;-74
2022/11/28 14:45:32;;;;;;;;;6.50;6.50;;;;;;;;116762;1193;25560;-74
2022/11/28 14:48:22;;;;;;;;;11.33;9.33;;;;;;;;116634;1205;25364;-72
2022/11/28 14:50:51;;;;;;;;;9.33;8.00;;;;;;;;116676;1198;24813;-71
2022/11/28 14:53:41;;;;;;;;;14.50;8.00;;;;;;;;116712;1208;24770;-74
2022/11/28 14:56:27;;;;;;;;;8.67;7.00;;;;;;;;116720;1193;24873;-72
2022/11/28 14:58:57;;;;;;;;;12.00;9.50;;;;;;;;116772;1200;25392;-72